createdAt,value
2024-05-09T00:00:56.112Z,6.35
2024-05-09T00:03:28.612Z,6.10
2024-05-09T00:06:01.165Z,6.10
2024-05-09T00:08:34.092Z,5.90
2024-05-09T00:11:06.769Z,6.28
2024-05-09T00:13:39.286Z,5.93
2024-05-09T00:16:11.696Z,7.03
2024-05-09T00:18:44.150Z,6.45
2024-05-09T00:21:16.657Z,5.85
2024-05-09T00:23:49.109Z,5.78
2024-05-09T00:26:21.599Z,5.57
2024-05-09T00:28:54.105Z,6.07
2024-05-09T00:31:26.875Z,6.38
2024-05-09T00:33:59.523Z,6.68
2024-05-09T00:36:32.034Z,7.30
2024-05-09T00:39:04.669Z,6.97
2024-05-09T00:41:37.144Z,7.25
2024-05-09T00:44:09.714Z,6.80
2024-05-09T00:46:42.208Z,6.82
2024-05-09T00:49:15.014Z,6.63
2024-05-09T00:51:47.627Z,7.10
2024-05-09T00:54:21.423Z,6.88
2024-05-09T00:56:54.134Z,6.80
2024-05-09T01:02:02.339Z,6.82
2024-05-09T01:04:34.833Z,6.57
2024-05-09T01:07:07.943Z,6.85
2024-05-09T01:09:40.472Z,6.70
2024-05-09T01:12:13.124Z,6.63
2024-05-09T01:14:45.945Z,6.65
2024-05-09T01:17:18.651Z,7.35
2024-05-09T01:19:51.224Z,7.00
2024-05-09T01:22:26.077Z,6.90
2024-05-09T01:24:58.429Z,7.22
2024-05-09T01:27:31.726Z,6.85
2024-05-09T01:30:06.952Z,6.88
2024-05-09T01:32:41.773Z,6.85
2024-05-09T01:35:14.346Z,7.38
2024-05-09T01:37:47.220Z,6.90
2024-05-09T01:40:25.351Z,6.68
2024-05-09T01:43:06.631Z,7.55
2024-05-09T01:45:42.761Z,6.82
2024-05-09T01:48:15.353Z,7.07
2024-05-09T01:50:47.875Z,7.20
2024-05-09T01:53:22.879Z,6.90
2024-05-09T01:55:55.400Z,7.03
2024-05-09T01:58:28.471Z,8.57
2024-05-09T02:01:00.888Z,7.90
2024-05-09T02:03:33.461Z,7.45
2024-05-09T02:06:06.413Z,7.75
2024-05-09T02:08:39.596Z,7.32
2024-05-09T02:11:12.460Z,7.10
2024-05-09T02:13:45.078Z,7.25
2024-05-09T02:16:17.527Z,7.43
2024-05-09T02:18:50.061Z,8.00
2024-05-09T02:21:22.531Z,7.82
2024-05-09T02:23:54.958Z,8.50
2024-05-09T02:26:27.414Z,7.60
2024-05-09T02:29:00.292Z,7.93
2024-05-09T02:31:32.700Z,7.93
2024-05-09T02:34:09.182Z,8.10
2024-05-09T02:36:41.662Z,8.48
2024-05-09T02:39:14.044Z,8.50
2024-05-09T02:41:47.509Z,8.23
2024-05-09T02:44:19.974Z,8.73
2024-05-09T02:46:52.443Z,8.32
2024-05-09T02:49:25.334Z,8.15
2024-05-09T02:51:57.777Z,8.07
2024-05-09T02:54:30.189Z,8.80
2024-05-09T02:57:04.627Z,8.48
2024-05-09T02:59:38.197Z,14.77
2024-05-09T03:02:10.718Z,25.15
2024-05-09T03:04:43.521Z,23.20
2024-05-09T03:07:17.228Z,26.70
2024-05-09T03:09:50.780Z,30.65
2024-05-09T03:12:23.293Z,35.67
2024-05-09T03:14:58.509Z,36.40
2024-05-09T03:17:33.903Z,31.80
2024-05-09T03:20:14.524Z,25.60
2024-05-09T03:22:50.154Z,26.50
2024-05-09T03:25:23.160Z,24.85
2024-05-09T03:27:55.873Z,26.10
2024-05-09T03:30:39.037Z,26.60
2024-05-09T03:33:17.915Z,22.75
2024-05-09T03:35:51.951Z,24.77
2024-05-09T03:38:24.401Z,25.15
2024-05-09T03:40:56.823Z,23.35
2024-05-09T03:43:29.214Z,18.23
2024-05-09T03:46:01.689Z,18.38
2024-05-09T03:48:37.304Z,19.30
2024-05-09T03:51:09.974Z,17.20
2024-05-09T03:53:42.727Z,14.05
2024-05-09T03:56:17.909Z,14.80
2024-05-09T03:58:50.346Z,13.30
2024-05-09T04:01:23.061Z,14.07
2024-05-09T04:03:58.401Z,14.50
2024-05-09T04:06:30.848Z,12.88
2024-05-09T04:09:03.901Z,12.48
2024-05-09T04:11:36.474Z,10.95
2024-05-09T04:14:08.920Z,10.80
2024-05-09T04:16:41.359Z,9.85
2024-05-09T04:19:13.768Z,8.77
2024-05-09T04:21:46.215Z,8.85
2024-05-09T04:24:18.615Z,9.35
2024-05-09T04:26:50.984Z,8.95
2024-05-09T04:29:23.423Z,8.95
2024-05-09T04:31:55.976Z,8.75
2024-05-09T04:34:28.524Z,8.25
2024-05-09T04:37:02.974Z,8.53
2024-05-09T04:39:35.505Z,8.25
2024-05-09T04:42:07.910Z,7.80
2024-05-09T04:44:42.874Z,8.52
2024-05-09T04:47:16.726Z,8.65
2024-05-09T04:49:49.173Z,8.48
2024-05-09T04:52:21.593Z,8.68
2024-05-09T04:54:58.501Z,8.77
2024-05-09T04:57:31.314Z,8.30
2024-05-09T05:00:09.342Z,7.85
2024-05-09T05:02:46.554Z,8.15
2024-05-09T05:05:19.081Z,8.10
2024-05-09T05:07:53.152Z,7.70
2024-05-09T05:10:33.823Z,9.40
2024-05-09T05:13:19.434Z,8.55
2024-05-09T05:15:58.354Z,8.20
2024-05-09T05:18:31.378Z,8.23
2024-05-09T05:21:03.902Z,8.60
2024-05-09T05:23:36.498Z,8.05
2024-05-09T05:26:09.033Z,7.90
2024-05-09T05:28:41.484Z,7.55
2024-05-09T05:31:15.769Z,7.93
2024-05-09T05:33:49.379Z,8.05
2024-05-09T05:36:24.087Z,8.30
2024-05-09T05:38:56.510Z,7.97
2024-05-09T05:41:29.059Z,7.60
2024-05-09T05:44:01.889Z,7.78
2024-05-09T05:46:34.317Z,8.68
2024-05-09T05:49:06.983Z,7.68
2024-05-09T05:51:39.418Z,8.00
2024-05-09T05:54:11.812Z,7.50
2024-05-09T05:56:44.278Z,7.72
2024-05-09T05:59:19.727Z,7.30
2024-05-09T06:01:52.073Z,8.20
2024-05-09T06:04:24.571Z,8.65
2024-05-09T06:06:57.020Z,8.70
2024-05-09T06:09:29.450Z,7.78
2024-05-09T06:12:02.352Z,8.05
2024-05-09T06:14:34.942Z,7.32
2024-05-09T06:17:07.558Z,7.72
2024-05-09T06:19:43.239Z,7.60
2024-05-09T06:22:16.714Z,7.22
2024-05-09T06:24:51.675Z,7.00
2024-05-09T06:27:24.127Z,7.63
2024-05-09T06:29:56.614Z,7.20
2024-05-09T06:32:29.653Z,7.50
2024-05-09T06:35:02.144Z,7.13
2024-05-09T06:37:34.586Z,8.18
2024-05-09T06:40:10.137Z,7.60
2024-05-09T06:42:42.644Z,7.65
2024-05-09T06:45:15.884Z,6.90
2024-05-09T06:47:48.498Z,7.30
2024-05-09T06:50:24.230Z,7.07
2024-05-09T06:53:00.459Z,6.50
2024-05-09T06:55:32.920Z,6.85
2024-05-09T06:58:12.055Z,7.82
2024-05-09T07:00:44.500Z,7.18
2024-05-09T07:03:18.560Z,8.13
2024-05-09T07:05:51.970Z,8.27
2024-05-09T07:08:24.444Z,8.68
2024-05-09T07:10:56.929Z,8.18
2024-05-09T07:13:30.776Z,8.50
2024-05-09T07:16:03.244Z,8.35
2024-05-09T07:18:36.075Z,8.50
2024-05-09T07:21:09.350Z,7.43
2024-05-09T07:23:47.530Z,8.40
2024-05-09T07:26:20.172Z,8.20
2024-05-09T07:28:52.628Z,8.20
2024-05-09T07:31:28.194Z,8.23
2024-05-09T07:34:01.426Z,8.80
2024-05-09T07:36:36.640Z,7.25
2024-05-09T07:39:12.864Z,7.90
2024-05-09T07:41:45.356Z,7.55
2024-05-09T07:44:17.947Z,6.53
2024-05-09T07:47:52.290Z,6.97
2024-05-09T07:51:32.038Z,5.82
2024-05-09T07:53:34.205Z,6.20
2024-05-09T07:55:33.526Z,5.63
2024-05-09T07:58:06.299Z,5.45
2024-05-09T08:00:39.171Z,6.15
2024-05-09T08:03:11.724Z,5.50
2024-05-09T08:05:44.166Z,5.47
2024-05-09T08:08:16.968Z,6.13
2024-05-09T08:10:51.333Z,5.47
2024-05-09T08:13:23.815Z,5.97
2024-05-09T08:15:56.280Z,5.43
2024-05-09T08:18:29.095Z,5.47
2024-05-09T08:21:01.823Z,4.93
2024-05-09T08:23:38.302Z,5.00
2024-05-09T08:26:10.685Z,4.97
2024-05-09T08:28:44.463Z,5.18
2024-05-09T08:31:19.043Z,4.55
2024-05-09T08:33:56.595Z,4.85
2024-05-09T08:36:29.174Z,5.20
2024-05-09T08:39:02.719Z,5.20
2024-05-09T08:41:39.991Z,4.60
2024-05-09T08:44:12.477Z,4.40
2024-05-09T08:47:00.584Z,4.45
2024-05-09T08:49:33.943Z,4.65
2024-05-09T08:52:06.951Z,4.50
2024-05-09T08:54:39.397Z,4.28
2024-05-09T08:57:13.738Z,5.25
2024-05-09T08:59:50.999Z,4.53
2024-05-09T09:02:29.143Z,5.45
2024-05-09T09:05:12.333Z,4.53
2024-05-09T09:07:48.488Z,4.80
2024-05-09T09:10:29.575Z,5.25
2024-05-09T09:13:07.338Z,5.10
2024-05-09T09:15:50.441Z,4.00
2024-05-09T09:18:28.107Z,6.63
2024-05-09T09:21:00.931Z,3.53
2024-05-09T09:23:36.599Z,3.35
2024-05-09T09:26:09.013Z,3.80
2024-05-09T09:28:41.403Z,4.15
2024-05-09T09:31:19.019Z,3.70
2024-05-09T09:33:53.745Z,3.55
2024-05-09T09:36:28.146Z,3.67
2024-05-09T09:39:04.006Z,3.72
2024-05-09T09:41:38.632Z,3.53
2024-05-09T09:44:11.170Z,3.50
2024-05-09T09:46:48.323Z,3.58
2024-05-09T09:49:20.913Z,3.88
2024-05-09T09:51:53.818Z,3.90
2024-05-09T09:54:29.107Z,3.90
2024-05-09T09:57:01.931Z,3.17
2024-05-09T09:59:36.252Z,3.50
2024-05-09T10:04:41.400Z,4.10
2024-05-09T10:07:15.125Z,3.80
2024-05-09T10:09:47.700Z,3.30
2024-05-09T10:12:24.310Z,3.15
2024-05-09T10:14:56.773Z,4.40
2024-05-09T10:17:29.255Z,3.33
2024-05-09T10:20:14.435Z,4.43
2024-05-09T10:22:53.563Z,4.10
2024-05-09T10:25:26.056Z,4.85
2024-05-09T10:27:58.929Z,5.20
2024-05-09T10:30:35.953Z,5.50
2024-05-09T10:33:11.817Z,3.58
2024-05-09T10:35:52.290Z,4.10
2024-05-09T10:38:26.941Z,4.93
2024-05-09T10:41:00.719Z,3.83
2024-05-09T10:43:36.490Z,4.47
2024-05-09T10:46:11.189Z,4.82
2024-05-09T10:48:46.961Z,3.67
2024-05-09T10:51:21.185Z,3.67
2024-05-09T10:53:53.590Z,4.18
2024-05-09T10:56:27.021Z,3.70
2024-05-09T10:58:59.405Z,3.55
2024-05-09T11:01:32.533Z,3.85
2024-05-09T11:04:06.128Z,4.40
2024-05-09T11:06:39.267Z,3.60
2024-05-09T11:09:12.561Z,4.90
2024-05-09T11:11:48.861Z,3.53
2024-05-09T11:14:21.308Z,4.07
2024-05-09T11:17:07.195Z,2.95
2024-05-09T11:19:40.795Z,3.40
2024-05-09T11:22:14.675Z,3.22
2024-05-09T11:24:47.130Z,3.15
2024-05-09T11:27:24.057Z,3.53
2024-05-09T11:29:57.918Z,3.35
2024-05-09T11:32:34.118Z,5.15
2024-05-09T11:35:06.914Z,3.85
2024-05-09T11:37:41.176Z,4.15
2024-05-09T11:40:21.228Z,3.65
2024-05-09T11:42:57.818Z,3.75
2024-05-09T11:45:31.288Z,3.60
2024-05-09T11:48:04.567Z,3.63
2024-05-09T11:50:37.055Z,3.67
2024-05-09T11:53:12.863Z,4.20
2024-05-09T11:55:45.269Z,3.50
2024-05-09T11:58:18.886Z,4.28
2024-05-09T12:00:51.974Z,3.47
2024-05-09T12:03:24.493Z,3.50
2024-05-09T12:05:57.373Z,3.85
2024-05-09T12:08:33.919Z,3.35
2024-05-09T12:11:06.843Z,3.60
2024-05-09T12:13:42.682Z,3.53
2024-05-09T12:16:16.987Z,3.42
2024-05-09T12:18:49.613Z,3.72
2024-05-09T12:21:22.175Z,4.22
2024-05-09T12:23:54.559Z,3.65
2024-05-09T12:26:27.782Z,3.63
2024-05-09T12:29:00.237Z,3.92
2024-05-09T12:31:32.784Z,4.25
2024-05-09T12:34:05.387Z,4.65
2024-05-09T12:36:37.917Z,3.90
2024-05-09T12:39:10.393Z,3.47
2024-05-09T12:41:42.807Z,3.30
2024-05-09T12:44:15.313Z,4.20
2024-05-09T12:46:50.578Z,4.20
2024-05-09T12:49:24.604Z,4.00
2024-05-09T12:51:58.166Z,3.72
2024-05-09T12:54:33.567Z,4.00
2024-05-09T12:57:06.159Z,3.60
2024-05-09T12:59:38.699Z,4.28
2024-05-09T13:02:11.834Z,3.97
2024-05-09T13:04:44.560Z,3.67
2024-05-09T13:07:19.917Z,3.53
2024-05-09T13:09:52.427Z,4.10
2024-05-09T13:12:27.657Z,3.40
2024-05-09T13:15:00.542Z,4.50
2024-05-09T13:17:36.981Z,3.70
2024-05-09T13:20:18.512Z,3.25
2024-05-09T13:22:55.383Z,3.60
2024-05-09T13:25:30.820Z,4.30
2024-05-09T13:28:04.882Z,3.83
2024-05-09T13:30:40.735Z,4.00
2024-05-09T13:33:15.836Z,3.85
2024-05-09T13:35:50.645Z,4.25
2024-05-09T13:38:23.620Z,4.00
2024-05-09T13:40:58.828Z,3.90
2024-05-09T13:43:33.265Z,3.40
2024-05-09T13:46:05.821Z,3.53
2024-05-09T13:48:38.401Z,4.13
2024-05-09T13:51:10.919Z,3.90
2024-05-09T13:53:43.854Z,3.60
2024-05-09T13:56:16.290Z,3.88
2024-05-09T13:58:51.224Z,4.30
2024-05-09T14:01:23.740Z,4.05
2024-05-09T14:03:56.424Z,4.15
2024-05-09T14:06:28.984Z,3.63
2024-05-09T14:09:01.427Z,3.92
2024-05-09T14:11:33.875Z,4.00
2024-05-09T14:14:06.308Z,4.40
2024-05-09T14:16:39.912Z,4.10
2024-05-09T14:19:12.631Z,4.05
2024-05-09T14:21:51.076Z,3.90
2024-05-09T14:24:23.435Z,4.45
2024-05-09T14:26:55.894Z,3.65
2024-05-09T14:29:28.481Z,4.35
2024-05-09T14:32:00.933Z,3.90
2024-05-09T14:34:36.884Z,4.10
2024-05-09T14:37:09.531Z,3.80
2024-05-09T14:39:41.983Z,3.83
2024-05-09T14:42:15.304Z,4.07
2024-05-09T14:44:47.682Z,4.18
2024-05-09T14:47:23.346Z,4.40
2024-05-09T14:49:55.868Z,3.72
2024-05-09T14:52:31.275Z,4.40
2024-05-09T14:55:03.774Z,4.00
2024-05-09T14:57:36.763Z,3.88
2024-05-09T15:00:17.438Z,4.20
2024-05-09T15:02:57.919Z,4.10
2024-05-09T15:05:30.633Z,4.50
2024-05-09T15:08:09.584Z,3.90
2024-05-09T15:10:42.064Z,4.28
2024-05-09T15:13:16.550Z,3.78
2024-05-09T15:15:49.680Z,4.50
2024-05-09T15:18:25.414Z,4.38
2024-05-09T15:20:59.090Z,4.18
2024-05-09T15:23:31.510Z,4.18
2024-05-09T15:26:04.764Z,4.40
2024-05-09T15:28:37.256Z,4.05
2024-05-09T15:31:11.132Z,4.05
2024-05-09T15:33:46.670Z,3.75
2024-05-09T15:36:20.030Z,3.85
2024-05-09T15:38:52.725Z,3.50
2024-05-09T15:41:25.188Z,9.75
2024-05-09T15:43:58.625Z,5.20
2024-05-09T15:46:31.137Z,4.07
2024-05-09T15:49:06.034Z,4.07
2024-05-09T15:51:38.628Z,4.20
2024-05-09T15:54:11.728Z,3.90
2024-05-09T15:56:48.903Z,3.92
2024-05-09T15:59:24.320Z,3.67
2024-05-09T16:01:57.210Z,3.60
2024-05-09T16:04:29.754Z,3.97
2024-05-09T16:07:03.416Z,3.88
2024-05-09T16:09:36.111Z,3.60
2024-05-09T16:12:08.559Z,3.42
2024-05-09T16:14:40.973Z,3.60
2024-05-09T16:17:14.571Z,3.45
2024-05-09T16:19:47.056Z,3.67
2024-05-09T16:22:19.490Z,4.80
2024-05-09T16:24:53.146Z,6.25
2024-05-09T16:27:26.461Z,5.82
2024-05-09T16:30:04.124Z,4.68
2024-05-09T16:32:46.845Z,4.05
2024-05-09T16:35:19.384Z,4.07
2024-05-09T16:37:51.823Z,3.95
2024-05-09T16:40:34.195Z,2.85
2024-05-09T16:43:14.195Z,2.78
2024-05-09T16:45:46.724Z,2.88
2024-05-09T16:48:19.760Z,2.95
2024-05-09T16:50:53.676Z,3.80
2024-05-09T16:53:26.440Z,3.60
2024-05-09T16:55:59.088Z,3.63
2024-05-09T16:58:31.703Z,3.05
2024-05-09T17:01:04.412Z,3.30
2024-05-09T17:03:37.200Z,3.22
2024-05-09T17:06:12.881Z,2.88
2024-05-09T17:08:45.329Z,2.95
2024-05-09T17:11:17.852Z,3.10
2024-05-09T17:13:50.433Z,3.67
2024-05-09T17:16:23.033Z,3.10
2024-05-09T17:18:55.551Z,3.10
2024-05-09T17:21:27.932Z,3.30
2024-05-09T17:24:00.428Z,2.90
2024-05-09T17:26:35.793Z,3.10
2024-05-09T17:29:12.316Z,2.97
2024-05-09T17:31:44.994Z,2.50
2024-05-09T17:34:17.638Z,2.90
2024-05-09T17:36:50.495Z,3.00
2024-05-09T17:39:22.959Z,2.70
2024-05-09T17:41:55.664Z,2.58
2024-05-09T17:44:28.285Z,3.08
2024-05-09T17:47:00.972Z,3.13
2024-05-09T17:49:33.515Z,2.95
2024-05-09T17:52:06.613Z,2.72
2024-05-09T17:54:39.089Z,2.83
2024-05-09T17:57:11.518Z,2.63
2024-05-09T17:59:44.007Z,2.90
2024-05-09T18:02:19.304Z,2.88
2024-05-09T18:04:51.975Z,2.45
2024-05-09T18:07:24.541Z,2.65
2024-05-09T18:09:57.487Z,2.80
2024-05-09T18:12:30.044Z,2.92
2024-05-09T18:15:02.727Z,2.60
2024-05-09T18:17:35.554Z,2.88
2024-05-09T18:20:11.295Z,3.22
2024-05-09T18:22:46.229Z,2.95
2024-05-09T18:25:18.686Z,3.15
2024-05-09T18:27:51.166Z,2.83
2024-05-09T18:30:28.313Z,2.92
2024-05-09T18:33:13.509Z,3.03
2024-05-09T18:35:46.216Z,3.10
2024-05-09T18:38:25.514Z,2.70
2024-05-09T18:40:58.487Z,2.90
2024-05-09T18:43:38.225Z,3.30
2024-05-09T18:46:20.073Z,3.20
2024-05-09T18:48:53.291Z,3.65
2024-05-09T18:51:25.839Z,3.03
2024-05-09T18:53:59.255Z,3.75
2024-05-09T18:56:31.683Z,3.65
2024-05-09T18:59:04.132Z,3.40
2024-05-09T19:01:41.073Z,2.95
2024-05-09T19:04:13.857Z,3.47
2024-05-09T19:06:47.170Z,3.38
2024-05-09T19:09:19.607Z,4.03
2024-05-09T19:11:52.101Z,4.00
2024-05-09T19:14:27.328Z,3.35
2024-05-09T19:16:59.953Z,3.47
2024-05-09T19:19:32.531Z,3.40
2024-05-09T19:22:07.813Z,3.63
2024-05-09T19:24:41.345Z,3.78
2024-05-09T19:27:14.909Z,3.80
2024-05-09T19:29:47.377Z,4.30
2024-05-09T19:32:28.084Z,4.18
2024-05-09T19:35:02.521Z,3.60
2024-05-09T19:37:35.226Z,3.75
2024-05-09T19:40:14.659Z,4.13
2024-05-09T19:42:51.511Z,3.60
2024-05-09T19:45:23.962Z,3.42
2024-05-09T19:48:00.046Z,3.70
2024-05-09T19:50:41.559Z,3.70
2024-05-09T19:53:17.195Z,3.20
2024-05-09T19:55:49.684Z,3.30
2024-05-09T19:58:27.952Z,3.08
2024-05-09T20:01:01.069Z,3.88
2024-05-09T20:03:37.383Z,3.20
2024-05-09T20:06:10.187Z,3.47
2024-05-09T20:08:42.648Z,3.47
2024-05-09T20:11:15.540Z,3.20
2024-05-09T20:13:48.013Z,3.53
2024-05-09T20:16:20.601Z,3.83
2024-05-09T20:18:53.365Z,3.60
2024-05-09T20:21:26.220Z,4.40
2024-05-09T20:23:58.777Z,3.53
2024-05-09T20:26:31.282Z,3.88
2024-05-09T20:29:04.689Z,4.40
2024-05-09T20:31:37.181Z,4.90
2024-05-09T20:34:13.727Z,4.20
2024-05-09T20:36:46.322Z,3.90
2024-05-09T20:41:58.008Z,3.80
2024-05-09T20:44:30.518Z,4.00
2024-05-09T20:47:02.913Z,4.03
2024-05-09T20:49:35.436Z,4.15
2024-05-09T20:52:08.342Z,3.45
2024-05-09T20:54:41.385Z,4.07
2024-05-09T20:57:16.690Z,4.00
2024-05-09T20:59:49.128Z,3.88
2024-05-09T21:02:21.645Z,4.00
2024-05-09T21:04:54.255Z,4.05
2024-05-09T21:07:26.784Z,5.55
2024-05-09T21:09:59.264Z,4.28
2024-05-09T21:12:33.279Z,3.92
2024-05-09T21:15:06.076Z,5.15
2024-05-09T21:17:38.550Z,4.60
2024-05-09T21:20:17.066Z,3.97
2024-05-09T21:22:52.809Z,4.43
2024-05-09T21:25:25.375Z,4.60
2024-05-09T21:27:59.072Z,5.22
2024-05-09T21:30:40.215Z,5.47
2024-05-09T21:33:15.494Z,5.25
2024-05-09T21:35:48.015Z,5.20
2024-05-09T21:38:20.445Z,6.30
2024-05-09T21:40:54.042Z,4.65
2024-05-09T21:43:28.656Z,4.93
2024-05-09T21:48:36.361Z,4.80
2024-05-09T21:51:15.060Z,4.82
2024-05-09T21:53:48.960Z,4.97
2024-05-09T21:56:21.515Z,4.38
2024-05-09T21:58:55.015Z,4.53
2024-05-09T22:01:27.553Z,4.95
2024-05-09T22:04:00.298Z,5.20
2024-05-09T22:06:32.853Z,5.03
2024-05-09T22:09:05.831Z,5.20
2024-05-09T22:11:38.316Z,5.80
2024-05-09T22:14:10.849Z,5.53
2024-05-09T22:16:43.258Z,5.85
2024-05-09T22:19:15.702Z,5.03
2024-05-09T22:21:49.122Z,5.32
2024-05-09T22:24:21.724Z,5.20
2024-05-09T22:26:55.213Z,5.75
2024-05-09T22:29:30.293Z,5.68
2024-05-09T22:32:02.744Z,5.63
2024-05-09T22:34:37.526Z,5.53
2024-05-09T22:37:10.101Z,5.82
2024-05-09T22:39:44.647Z,5.68
2024-05-09T22:42:17.587Z,6.25
2024-05-09T22:44:49.966Z,5.70
2024-05-09T22:47:22.399Z,6.13
2024-05-09T22:49:54.892Z,6.32
2024-05-09T22:52:30.858Z,6.38
2024-05-09T22:55:03.753Z,6.00
2024-05-09T22:57:37.397Z,6.10
2024-05-09T23:00:15.387Z,6.22
2024-05-09T23:02:48.194Z,6.75
2024-05-09T23:05:20.761Z,6.90
2024-05-09T23:07:53.184Z,5.95
2024-05-09T23:10:35.533Z,6.63
2024-05-09T23:13:09.972Z,7.15
2024-05-09T23:15:42.505Z,7.13
2024-05-09T23:18:15.042Z,6.60
2024-05-09T23:20:47.462Z,7.50
2024-05-09T23:23:20.105Z,6.78
2024-05-09T23:25:52.787Z,7.40
2024-05-09T23:28:26.731Z,7.03
2024-05-09T23:30:59.200Z,7.00
2024-05-09T23:33:31.621Z,6.57
2024-05-09T23:36:04.206Z,6.63
2024-05-09T23:38:39.195Z,6.47
2024-05-09T23:41:11.729Z,6.80
2024-05-09T23:43:44.094Z,6.22
2024-05-09T23:46:16.562Z,6.65
2024-05-09T23:48:52.306Z,6.32
2024-05-09T23:51:24.840Z,6.97
2024-05-09T23:53:57.258Z,7.22
2024-05-09T23:56:29.671Z,6.65
2024-05-09T23:59:02.151Z,6.20
